White Rock, Texas
Current Conditions -  °F | °C
As of 8:15 PM on Sunday 25 Jan 2015 (Local Time) from KOCH Reporting Station
Clear Clear  
Wind Chill: 54°   Ceiling: Unl
Heat Index: 54°   Visibility: 10mi
Dew Point: 27°   Wind: 10mph
Humidity: 35%   Direction: 310°NW
Pressure: 30.09"   Gusts: NA
Location:  31.516°N, 94.1687°W
Report Text: KOCH 260215Z 31009KT 10SM CLR 12/M03 A3009 RMK AO1
Loading
Personal Weather Stations






























Interactive Weather Map New forecast layout! Learn more

10-Day Weather Forecast

Advertisements
Track Severe Weather on mobile